Time;durP1;ratioP1;P1;durP2;ratioP2;P2;SDS_P1;SDS_P2;PMS_P1;PMS_P2;Temp;Humidity;BMP_temperature;BMP_pressure;BME280_temperature;BME280_humidity;BME280_pressure;Samples;Min_cycle;Max_cycle;Signal;HPM_P1;HPM_P2
2023/08/22 00:02:11;;;;;;;7.28;1.77;;;;;;;-147.16;100.00;58666.56;7401720;19;20019;-68
2023/08/22 00:04:43;;;;;;;4.68;2.17;;;;;;;-147.16;100.00;58666.56;7398570;19;20478;-68
2023/08/22 00:07:11;;;;;;;3.88;1.85;;;;;;;-147.16;100.00;58666.56;7399230;19;20006;-68
2023/08/22 00:09:40;;;;;;;6.30;2.35;;;;;;;-147.16;100.00;58666.56;7401442;19;20027;-68
2023/08/22 00:12:09;;;;;;;6.38;1.92;;;;;;;-147.16;100.00;58666.56;7401026;19;20368;-68
2023/08/22 00:14:37;;;;;;;4.70;1.92;;;;;;;-147.16;100.00;58666.56;7398771;19;20019;-68
2023/08/22 00:17:08;;;;;;;6.10;2.00;;;;;;;-147.16;100.00;58666.56;7398199;19;20545;-68
2023/08/22 00:19:38;;;;;;;5.03;2.15;;;;;;;-147.16;100.00;58666.56;7398966;19;20030;-68
2023/08/22 00:22:09;;;;;;;4.07;2.10;;;;;;;-147.16;100.00;58666.56;7401037;19;20012;-68
2023/08/22 00:24:38;;;;;;;4.60;2.33;;;;;;;-147.16;100.00;58666.56;7398625;19;20018;-67
2023/08/22 00:27:07;;;;;;;3.90;1.65;;;;;;;-147.16;100.00;58666.56;7398343;19;20015;-68
2023/08/22 00:29:35;;;;;;;3.53;2.20;;;;;;;-147.16;100.00;58666.56;7400797;19;20015;-68
2023/08/22 00:32:04;;;;;;;8.15;2.22;;;;;;;-147.16;100.00;58666.56;7398490;19;20030;-67
2023/08/22 00:34:32;;;;;;;6.95;2.38;;;;;;;-147.16;100.00;58666.56;7397956;19;20477;-67
2023/08/22 00:37:01;;;;;;;5.57;2.05;;;;;;;-147.16;100.00;58666.56;7400253;19;20024;-67
2023/08/22 00:39:32;;;;;;;4.18;1.85;;;;;;;-147.16;100.00;58666.56;7398329;19;20011;-68
2023/08/22 00:42:00;;;;;;;5.57;1.98;;;;;;;-147.16;100.00;58666.56;7400859;19;20021;-67
2023/08/22 00:44:29;;;;;;;3.08;2.03;;;;;;;-147.16;100.00;58666.56;7398143;19;20022;-68
2023/08/22 00:46:58;;;;;;;5.40;2.10;;;;;;;-147.16;100.00;58666.56;7400317;19;20023;-67
2023/08/22 00:49:28;;;;;;;3.42;2.30;;;;;;;-147.16;100.00;58666.56;7397732;19;20018;-67
2023/08/22 00:51:59;;;;;;;7.70;2.10;;;;;;;-147.16;100.00;58666.56;7400526;19;20086;-68
2023/08/22 00:54:29;;;;;;;6.65;2.40;;;;;;;-147.16;100.00;58666.56;7398078;19;20043;-67
2023/08/22 00:57:00;;;;;;;6.32;2.60;;;;;;;-147.16;100.00;58666.56;7399931;19;20031;-67
2023/08/22 00:59:30;;;;;;;7.35;2.17;;;;;;;-147.16;100.00;58666.56;7398404;19;20027;-67
2023/08/22 01:01:58;;;;;;;4.63;1.98;;;;;;;-147.16;100.00;58666.56;7399766;19;20019;-68
2023/08/22 01:04:27;;;;;;;4.68;2.25;;;;;;;-147.16;100.00;58666.56;7397272;19;20390;-67
2023/08/22 01:07:03;;;;;;;8.25;2.47;;;;;;;-147.16;100.00;58666.56;7399279;19;20017;-67
2023/08/22 01:09:35;;;;;;;3.72;2.00;;;;;;;-147.16;100.00;58666.56;7399251;19;20021;-69
2023/08/22 01:12:15;;;;;;;3.63;2.38;;;;;;;-147.16;100.00;58666.56;7399754;19;20011;-68
2023/08/22 01:14:48;;;;;;;5.47;2.17;;;;;;;-147.16;100.00;58666.56;7397883;19;20370;-67
2023/08/22 01:17:17;;;;;;;5.47;2.15;;;;;;;-147.16;100.00;58666.56;7399766;19;20027;-68
2023/08/22 01:19:46;;;;;;;4.55;2.00;;;;;;;-147.16;100.00;58666.56;7396794;19;20379;-68
2023/08/22 01:22:17;;;;;;;4.53;2.50;;;;;;;-147.16;100.00;58666.56;7399062;19;20358;-67
2023/08/22 01:24:46;;;;;;;4.47;2.53;;;;;;;-147.16;100.00;58666.56;7396851;19;20015;-68
2023/08/22 01:27:17;;;;;;;4.40;2.45;;;;;;;-147.16;100.00;58666.56;7396345;19;20023;-68
2023/08/22 01:29:53;;;;;;;7.72;2.53;;;;;;;-147.16;100.00;58666.56;7398950;19;20360;-68
2023/08/22 01:32:25;;;;;;;2.78;2.03;;;;;;;-147.16;100.00;58666.56;7396281;19;20046;-68
2023/08/22 01:34:58;;;;;;;5.63;2.30;;;;;;;-147.16;100.00;58666.56;7397081;19;20031;-68
2023/08/22 01:37:31;;;;;;;3.15;1.80;;;;;;;-147.16;100.00;58666.56;7399089;19;20031;-68
2023/08/22 01:40:00;;;;;;;5.75;2.03;;;;;;;-147.16;100.00;58666.56;7396986;19;20014;-68
2023/08/22 01:42:29;;;;;;;3.33;2.13;;;;;;;-147.16;100.00;58666.56;7397852;19;20482;-68
2023/08/22 01:44:58;;;;;;;4.30;2.20;;;;;;;-147.16;100.00;58666.56;7398024;19;20027;-68
2023/08/22 01:47:26;;;;;;;3.08;2.22;;;;;;;-147.16;100.00;58666.56;7398286;19;20010;-67
2023/08/22 01:49:55;;;;;;;5.97;2.30;;;;;;;-147.16;100.00;58666.56;7397812;19;20031;-68
2023/08/22 01:52:23;;;;;;;5.68;2.35;;;;;;;-147.16;100.00;58666.56;7397674;19;20023;-68
2023/08/22 01:54:54;;;;;;;3.25;2.03;;;;;;;-147.16;100.00;58666.56;7398004;19;20018;-68
2023/08/22 01:57:23;;;;;;;3.47;2.20;;;;;;;-147.16;100.00;58666.56;7398346;19;20027;-69
2023/08/22 01:59:51;;;;;;;4.13;2.38;;;;;;;-147.16;100.00;58666.56;7394434;19;20481;-68
2023/08/22 02:02:20;;;;;;;5.53;2.13;;;;;;;-147.16;100.00;58666.56;7397774;19;20018;-68
2023/08/22 02:04:48;;;;;;;2.88;1.92;;;;;;;-147.16;100.00;58666.56;7395730;19;20031;-68
2023/08/22 02:07:17;;;;;;;5.60;2.30;;;;;;;-147.16;100.00;58666.56;7397221;19;20015;-68
2023/08/22 02:09:45;;;;;;;7.90;2.17;;;;;;;-147.16;100.00;58666.56;7397920;19;20019;-68
2023/08/22 02:12:16;;;;;;;7.43;2.28;;;;;;;-147.16;100.00;58666.56;7396968;19;20474;-68
2023/08/22 02:14:44;;;;;;;4.38;2.25;;;;;;;-147.16;100.00;58666.56;7395082;19;20027;-68
2023/08/22 02:17:13;;;;;;;6.60;2.25;;;;;;;-147.16;100.00;58666.56;7399402;19;20016;-69
2023/08/22 02:19:41;;;;;;;8.30;2.72;;;;;;;-147.16;100.00;58666.56;7398050;19;20037;-68
2023/08/22 02:22:10;;;;;;;4.88;2.92;;;;;;;-147.16;100.00;58666.56;7398503;19;20081;-69
2023/08/22 02:24:38;;;;;;;3.50;2.30;;;;;;;-147.16;100.00;58666.56;7396298;19;20081;-68
2023/08/22 02:27:07;;;;;;;8.45;2.63;;;;;;;-147.16;100.00;58666.56;7396168;19;20011;-68
2023/08/22 02:29:38;;;;;;;4.10;2.38;;;;;;;-147.16;100.00;58666.56;7396861;19;20039;-68
2023/08/22 02:32:07;;;;;;;6.22;2.30;;;;;;;-147.16;100.00;58666.56;7394636;19;20018;-68
2023/08/22 02:34:36;;;;;;;4.93;2.50;;;;;;;-147.16;100.00;58666.56;7394953;19;20010;-69
2023/08/22 02:37:04;;;;;;;5.00;2.40;;;;;;;-147.16;100.00;58666.56;7396131;19;20031;-68
2023/08/22 02:39:32;;;;;;;4.60;2.30;;;;;;;-147.16;100.00;58666.56;7394468;19;20023;-69
2023/08/22 02:42:01;;;;;;;3.72;2.22;;;;;;;-147.16;100.00;58666.56;7395889;19;20360;-68
2023/08/22 02:44:29;;;;;;;3.70;2.42;;;;;;;-147.16;100.00;58666.56;7394951;19;20031;-68
2023/08/22 02:47:00;;;;;;;4.30;2.38;;;;;;;-147.16;100.00;58666.56;7395995;19;20419;-69
2023/08/22 02:49:29;;;;;;;4.05;2.10;;;;;;;-147.16;100.00;58666.56;7395968;19;20541;-68
2023/08/22 02:51:57;;;;;;;6.28;2.53;;;;;;;-147.16;100.00;58666.56;7396222;19;20014;-68
2023/08/22 02:54:26;;;;;;;10.10;2.70;;;;;;;-147.16;100.00;58666.56;7394345;19;20474;-68
2023/08/22 02:56:54;;;;;;;5.00;2.28;;;;;;;-147.16;100.00;58666.56;7395997;19;20014;-68
2023/08/22 02:59:23;;;;;;;5.20;2.17;;;;;;;-147.16;100.00;58666.56;7394697;19;20515;-69
2023/08/22 03:02:00;;;;;;;4.68;2.03;;;;;;;-147.16;100.00;58666.56;7395779;19;20031;-69
2023/08/22 03:04:29;;;;;;;4.55;2.25;;;;;;;-147.16;100.00;58666.56;7394366;19;20007;-68
2023/08/22 03:06:57;;;;;;;4.93;2.72;;;;;;;-147.16;100.00;58666.56;7394959;19;20351;-67
2023/08/22 03:09:26;;;;;;;4.47;2.35;;;;;;;-147.16;100.00;58666.56;7395232;19;20053;-70
2023/08/22 03:11:54;;;;;;;4.28;2.50;;;;;;;-147.16;100.00;58666.56;7393190;19;20083;-68
2023/08/22 03:14:23;;;;;;;5.53;2.58;;;;;;;-147.16;100.00;58666.56;7393682;19;20038;-68
2023/08/22 03:16:52;;;;;;;7.75;2.83;;;;;;;-147.16;100.00;58666.56;7394654;19;20382;-68
2023/08/22 03:19:23;;;;;;;7.00;2.80;;;;;;;-147.16;100.00;58666.56;7394673;19;20015;-68
2023/08/22 03:21:58;;;;;;;8.30;2.60;;;;;;;-147.16;100.00;58666.56;7395106;19;20014;-68
2023/08/22 03:24:26;;;;;;;5.47;2.60;;;;;;;-147.16;100.00;58666.56;7393686;19;20082;-68
2023/08/22 03:26:55;;;;;;;4.45;2.38;;;;;;;-147.16;100.00;58666.56;7395115;19;20082;-68
2023/08/22 03:29:23;;;;;;;6.18;2.90;;;;;;;-147.16;100.00;58666.56;7394254;19;20080;-68
2023/08/22 03:31:52;;;;;;;6.90;3.28;;;;;;;-147.16;100.00;58666.56;7393643;19;20663;-68
2023/08/22 03:34:23;;;;;;;4.82;2.72;;;;;;;-147.16;100.00;58666.56;7392939;19;20486;-68
2023/08/22 03:36:51;;;;;;;7.53;2.33;;;;;;;-147.16;100.00;58666.56;7395175;19;20074;-68
2023/08/22 03:39:20;;;;;;;8.60;2.28;;;;;;;-147.16;100.00;58666.56;7392388;19;20479;-68
2023/08/22 03:41:48;;;;;;;5.20;2.50;;;;;;;-147.16;100.00;58666.56;7392659;19;20081;-68
2023/08/22 03:44:17;;;;;;;5.90;2.30;;;;;;;-147.16;100.00;58666.56;7393056;19;20082;-69
2023/08/22 03:46:45;;;;;;;5.45;2.33;;;;;;;-147.16;100.00;58666.56;7393765;19;20073;-68
2023/08/22 03:49:13;;;;;;;4.47;2.35;;;;;;;-147.16;100.00;58666.56;7393608;19;20069;-69
2023/08/22 03:51:44;;;;;;;7.32;2.70;;;;;;;-147.16;100.00;58666.56;7394315;19;20440;-68
2023/08/22 03:54:13;;;;;;;6.93;2.90;;;;;;;-147.16;100.00;58666.56;7392681;19;20027;-69
2023/08/22 03:56:41;;;;;;;12.27;3.78;;;;;;;-147.16;100.00;58666.56;7394831;19;20033;-69
2023/08/22 03:59:10;;;;;;;7.13;3.00;;;;;;;-147.16;100.00;58666.56;7392285;19;20082;-68
2023/08/22 04:01:38;;;;;;;6.05;3.20;;;;;;;-147.16;100.00;58666.56;7394130;19;20415;-68
2023/08/22 04:04:07;;;;;;;5.65;3.03;;;;;;;-147.16;100.00;58666.56;7392719;19;20070;-69
2023/08/22 04:06:35;;;;;;;6.25;2.75;;;;;;;-147.16;100.00;58666.56;7393297;19;20374;-68
2023/08/22 04:09:06;;;;;;;5.78;3.13;;;;;;;-147.16;100.00;58666.56;7393813;19;20090;-69
2023/08/22 04:11:35;;;;;;;5.10;3.10;;;;;;;-147.16;100.00;58666.56;7394444;19;20010;-69
2023/08/22 04:14:03;;;;;;;9.52;3.00;;;;;;;-147.16;100.00;58666.56;7392312;19;20077;-69
2023/08/22 04:16:32;;;;;;;6.20;3.33;;;;;;;-147.16;100.00;58666.56;7394105;19;20022;-69
2023/08/22 04:19:00;;;;;;;7.57;3.08;;;;;;;-147.16;100.00;58666.56;7393849;19;20022;-68
2023/08/22 04:21:28;;;;;;;8.85;4.90;;;;;;;-147.16;100.00;58666.56;7393706;19;20098;-69
2023/08/22 04:23:58;;;;;;;6.00;3.70;;;;;;;-147.16;100.00;58666.56;7395030;19;20015;-68
2023/08/22 04:26:29;;;;;;;9.60;3.08;;;;;;;-147.16;100.00;58666.56;7400861;19;20073;-68
2023/08/22 04:28:57;;;;;;;26.35;15.25;;;;;;;-147.16;100.00;58666.56;7400877;19;20011;-68
2023/08/22 04:31:25;;;;;;;18.63;11.38;;;;;;;-147.16;100.00;58666.56;7399227;19;20082;-68
2023/08/22 04:33:54;;;;;;;9.02;4.38;;;;;;;-147.16;100.00;58666.56;7397338;19;20074;-68
2023/08/22 04:36:22;;;;;;;5.03;3.33;;;;;;;-147.16;100.00;58666.56;7400109;19;20059;-68
2023/08/22 04:38:51;;;;;;;8.63;3.80;;;;;;;-147.16;100.00;58666.56;7400144;19;20082;-68
2023/08/22 04:41:19;;;;;;;7.72;3.22;;;;;;;-147.16;100.00;58666.56;7399672;19;20018;-68
2023/08/22 04:43:50;;;;;;;8.38;3.35;;;;;;;-147.16;100.00;58666.56;7397575;19;20081;-68
2023/08/22 04:46:18;;;;;;;5.97;3.63;;;;;;;-147.16;100.00;58666.56;7399686;19;20078;-68
2023/08/22 04:48:47;;;;;;;7.20;3.15;;;;;;;-147.16;100.00;58666.56;7399097;19;20070;-68
2023/08/22 04:51:15;;;;;;;8.13;3.78;;;;;;;-147.16;100.00;58666.56;7397133;19;20389;-68
2023/08/22 04:53:45;;;;;;;4.68;3.40;;;;;;;-147.16;100.00;58666.56;7398453;19;20070;-68
2023/08/22 04:56:14;;;;;;;9.18;3.47;;;;;;;-147.16;100.00;58666.56;7399728;19;20014;-68
2023/08/22 04:58:42;;;;;;;6.07;2.88;;;;;;;-147.16;100.00;58666.56;7399288;19;20082;-68
2023/08/22 05:01:13;;;;;;;5.68;3.30;;;;;;;-147.16;100.00;58666.56;7399384;19;20018;-68
2023/08/22 05:03:42;;;;;;;8.98;3.03;;;;;;;-147.16;100.00;58666.56;7398150;19;20027;-69
2023/08/22 05:06:10;;;;;;;6.65;3.47;;;;;;;-147.16;100.00;58666.56;7398682;19;20470;-67
2023/08/22 05:08:39;;;;;;;4.90;2.83;;;;;;;-147.16;100.00;58666.56;7398886;19;20098;-68
2023/08/22 05:11:07;;;;;;;6.15;2.88;;;;;;;-147.16;100.00;58666.56;7396709;19;20075;-68
2023/08/22 05:13:35;;;;;;;6.53;3.03;;;;;;;-147.16;100.00;58666.56;7396936;19;20031;-68
2023/08/22 05:16:04;;;;;;;7.40;3.60;;;;;;;-147.16;100.00;58666.56;7398359;19;20070;-69
2023/08/22 05:18:35;;;;;;;7.45;3.15;;;;;;;-147.16;100.00;58666.56;7398300;19;20513;-68
2023/08/22 05:21:04;;;;;;;4.03;2.80;;;;;;;-147.16;100.00;58666.56;7398741;19;20014;-68
2023/08/22 05:23:32;;;;;;;5.47;2.88;;;;;;;-147.16;100.00;58666.56;7396484;19;20015;-68
2023/08/22 05:26:01;;;;;;;5.45;2.88;;;;;;;-147.16;100.00;58666.56;7398149;19;20075;-67
2023/08/22 05:28:29;;;;;;;5.15;2.70;;;;;;;-147.16;100.00;58666.56;7398311;19;20423;-68
2023/08/22 05:30:58;;;;;;;6.32;3.17;;;;;;;-147.16;100.00;58666.56;7396831;19;20031;-68
2023/08/22 05:33:26;;;;;;;8.05;2.97;;;;;;;-147.16;100.00;58666.56;7395790;19;20434;-68
2023/08/22 05:35:57;;;;;;;6.47;2.80;;;;;;;-147.16;100.00;58666.56;7396474;19;20027;-68
2023/08/22 05:38:26;;;;;;;9.40;2.78;;;;;;;-147.16;100.00;58666.56;7397740;19;20485;-68
2023/08/22 05:40:54;;;;;;;6.78;3.13;;;;;;;-147.16;100.00;58666.56;7397550;19;20439;-67
2023/08/22 05:43:22;;;;;;;6.63;2.70;;;;;;;-147.16;100.00;58666.56;7397063;19;20074;-68
2023/08/22 05:45:51;;;;;;;7.45;3.33;;;;;;;-147.16;100.00;58666.56;7397754;19;20074;-68
2023/08/22 05:48:19;;;;;;;5.07;2.70;;;;;;;-147.16;100.00;58666.56;7397620;19;20066;-68
2023/08/22 05:50:48;;;;;;;6.90;3.63;;;;;;;-147.16;100.00;58666.56;7394701;19;20554;-68
2023/08/22 05:53:19;;;;;;;5.55;3.25;;;;;;;-147.16;100.00;58666.56;7396224;19;20051;-68
2023/08/22 05:55:47;;;;;;;7.40;2.92;;;;;;;-147.16;100.00;58666.56;7397704;19;20074;-67
2023/08/22 05:58:16;;;;;;;6.60;2.75;;;;;;;-147.16;100.00;58666.56;7397296;19;20078;-68
2023/08/22 06:00:44;;;;;;;7.72;3.15;;;;;;;-147.16;100.00;58666.56;7397518;19;20027;-68
2023/08/22 06:03:12;;;;;;;6.00;3.25;;;;;;;-147.16;100.00;58666.56;7396128;19;20041;-68
2023/08/22 06:05:41;;;;;;;8.40;3.25;;;;;;;-147.16;100.00;58666.56;7396611;19;20078;-67
2023/08/22 06:08:09;;;;;;;9.40;3.45;;;;;;;-147.16;100.00;58666.56;7396519;19;20066;-67
2023/08/22 06:10:40;;;;;;;7.03;3.22;;;;;;;-147.16;100.00;58666.56;7395774;19;20011;-67
2023/08/22 06:13:09;;;;;;;5.00;2.88;;;;;;;-147.16;100.00;58666.56;7395863;19;20014;-67
2023/08/22 06:15:38;;;;;;;5.95;3.72;;;;;;;-147.16;100.00;58666.56;7396247;19;20046;-67
2023/08/22 06:18:07;;;;;;;7.30;3.13;;;;;;;-147.16;100.00;58666.56;7395665;19;20426;-67
2023/08/22 06:20:40;;;;;;;6.28;2.92;;;;;;;-147.16;100.00;58666.56;7396747;19;20086;-67
2023/08/22 06:23:09;;;;;;;4.18;3.20;;;;;;;-147.16;100.00;58666.56;7396773;19;20014;-67
2023/08/22 06:25:40;;;;;;;7.65;3.53;;;;;;;-147.16;100.00;58666.56;7396171;19;20382;-68
2023/08/22 06:28:09;;;;;;;5.57;3.05;;;;;;;-147.16;100.00;58666.56;7394525;19;20028;-67
2023/08/22 06:30:37;;;;;;;9.13;3.33;;;;;;;-147.16;100.00;58666.56;7395576;19;20031;-69
2023/08/22 06:33:07;;;;;;;4.97;3.08;;;;;;;-147.16;100.00;58666.56;7394338;19;20506;-67
2023/08/22 06:35:35;;;;;;;6.82;2.70;;;;;;;-147.16;100.00;58666.56;7396326;19;20392;-68
2023/08/22 06:38:03;;;;;;;11.05;3.75;;;;;;;-147.16;100.00;58666.56;7394420;19;20087;-68
2023/08/22 06:40:32;;;;;;;8.75;3.28;;;;;;;-147.16;100.00;58666.56;7396014;19;20087;-68
2023/08/22 06:43:03;;;;;;;8.43;3.75;;;;;;;-147.16;100.00;58666.56;7395201;19;20014;-68
2023/08/22 06:45:31;;;;;;;7.72;3.78;;;;;;;-147.16;100.00;58666.56;7396487;19;20020;-68
2023/08/22 06:48:00;;;;;;;7.32;3.35;;;;;;;-147.16;100.00;58666.56;7393551;19;20079;-68
2023/08/22 06:50:28;;;;;;;6.90;2.72;;;;;;;-147.16;100.00;58666.56;7395088;19;20526;-68
2023/08/22 06:52:57;;;;;;;4.80;3.53;;;;;;;-147.16;100.00;58666.56;7395180;19;20028;-68
2023/08/22 06:55:26;;;;;;;8.05;3.30;;;;;;;-147.16;100.00;58666.56;7395757;19;20386;-68
2023/08/22 06:57:54;;;;;;;6.75;3.30;;;;;;;-147.16;100.00;58666.56;7395499;19;20078;-69
2023/08/22 07:00:26;;;;;;;4.85;2.83;;;;;;;-147.16;100.00;58666.56;7393275;19;20035;-67
2023/08/22 07:02:54;;;;;;;7.30;3.13;;;;;;;-147.16;100.00;58666.56;7394979;19;20025;-68
2023/08/22 07:05:23;;;;;;;6.53;3.03;;;;;;;-147.16;100.00;58666.56;7393509;19;20550;-67
2023/08/22 07:07:51;;;;;;;7.05;3.70;;;;;;;-147.16;100.00;58666.56;7395087;19;20393;-68
2023/08/22 07:10:20;;;;;;;5.85;3.40;;;;;;;-147.16;100.00;58666.56;7394737;19;20027;-68
2023/08/22 07:12:48;;;;;;;5.30;3.03;;;;;;;-147.16;100.00;58666.56;7394799;19;20074;-67
2023/08/22 07:15:17;;;;;;;5.43;3.28;;;;;;;-147.16;100.00;58666.56;7395399;19;20086;-67
2023/08/22 07:17:48;;;;;;;8.65;4.53;;;;;;;-147.16;100.00;58666.56;7394619;19;20037;-67
2023/08/22 07:20:16;;;;;;;9.30;3.42;;;;;;;-147.16;100.00;58666.56;7393878;19;20031;-67
2023/08/22 07:22:45;;;;;;;8.65;3.58;;;;;;;-147.16;100.00;58666.56;7394387;19;20103;-67
2023/08/22 07:25:13;;;;;;;6.50;3.95;;;;;;;-147.16;100.00;58666.56;7396177;19;20007;-67
2023/08/22 07:27:42;;;;;;;9.50;3.60;;;;;;;-147.16;100.00;58666.56;7395049;19;20083;-67
2023/08/22 07:30:11;;;;;;;8.77;3.20;;;;;;;-147.16;100.00;58666.56;7394654;19;20074;-65
2023/08/22 07:32:39;;;;;;;5.35;3.00;;;;;;;-147.16;100.00;58666.56;7391937;19;20423;-65
2023/08/22 07:35:11;;;;;;;4.65;2.95;;;;;;;-147.16;100.00;58666.56;7394366;19;20082;-66
2023/08/22 07:37:39;;;;;;;3.83;2.78;;;;;;;-147.16;100.00;58666.56;7392911;19;20070;-66
2023/08/22 07:40:09;;;;;;;7.43;3.72;;;;;;;-147.16;100.00;58666.56;7394170;19;20547;-65
2023/08/22 07:42:37;;;;;;;7.30;3.47;;;;;;;-147.16;100.00;58666.56;7392338;19;20078;-66
2023/08/22 07:45:07;;;;;;;4.18;2.75;;;;;;;-147.16;100.00;58666.56;7394109;19;20075;-65
2023/08/22 07:47:36;;;;;;;7.93;2.90;;;;;;;-147.16;100.00;58666.56;7393596;19;20454;-65
2023/08/22 07:50:04;;;;;;;5.38;2.95;;;;;;;-147.16;100.00;58666.56;7393829;19;20557;-65
2023/08/22 07:52:35;;;;;;;9.98;3.63;;;;;;;-147.16;100.00;58666.56;7393483;19;20022;-65
2023/08/22 07:55:03;;;;;;;6.65;2.85;;;;;;;-147.16;100.00;58666.56;7394319;19;20078;-65
2023/08/22 07:57:33;;;;;;;6.78;3.10;;;;;;;-147.16;100.00;58666.56;7393542;19;20083;-65
2023/08/22 08:00:03;;;;;;;8.30;2.72;;;;;;;-147.16;100.00;58666.56;7401034;19;20443;-65
2023/08/22 08:02:31;;;;;;;6.53;2.78;;;;;;;-147.16;100.00;58666.56;7401342;19;20010;-64
2023/08/22 08:04:59;;;;;;;10.40;3.42;;;;;;;-147.16;100.00;58666.56;7400844;19;20014;-64
2023/08/22 08:07:28;;;;;;;4.78;2.63;;;;;;;-147.16;100.00;58666.56;7400211;19;20430;-66
2023/08/22 08:09:59;;;;;;;9.02;3.22;;;;;;;-147.16;100.00;58666.56;7400422;19;20029;-64
2023/08/22 08:12:27;;;;;;;5.18;2.78;;;;;;;-147.16;100.00;58666.56;7401441;19;20066;-66
2023/08/22 08:14:56;;;;;;;7.90;2.90;;;;;;;-147.16;100.00;58666.56;7400760;19;20074;-64
2023/08/22 08:17:25;;;;;;;7.45;3.40;;;;;;;-147.16;100.00;58666.56;7397951;19;20018;-64
2023/08/22 08:19:54;;;;;;;7.45;3.53;;;;;;;-147.16;100.00;58666.56;7397472;19;20037;-65
2023/08/22 08:22:23;;;;;;;7.07;3.80;;;;;;;-147.16;100.00;58666.56;7400514;19;20070;-65
2023/08/22 08:24:52;;;;;;;7.88;3.95;;;;;;;-147.16;100.00;58666.56;7397464;19;20493;-66
2023/08/22 08:27:23;;;;;;;8.70;3.65;;;;;;;-147.16;100.00;58666.56;7400031;19;20011;-65
2023/08/22 08:29:52;;;;;;;7.85;2.83;;;;;;;-147.16;100.00;58666.56;7397347;19;20007;-65
2023/08/22 08:32:20;;;;;;;6.95;3.50;;;;;;;-147.16;100.00;58666.56;7396654;19;20485;-65
2023/08/22 08:34:49;;;;;;;10.02;3.88;;;;;;;-147.16;100.00;58666.56;7396967;19;20118;-65
2023/08/22 08:37:18;;;;;;;4.43;3.63;;;;;;;-147.16;100.00;58666.56;7396787;19;20010;-64
2023/08/22 08:39:47;;;;;;;6.00;3.05;;;;;;;-147.16;100.00;58666.56;7400045;19;20019;-66
2023/08/22 08:42:16;;;;;;;8.70;3.08;;;;;;;-147.16;100.00;58666.56;7401148;19;20106;-65
2023/08/22 08:44:47;;;;;;;6.03;3.58;;;;;;;-147.16;100.00;58666.56;7397663;19;20110;-65
2023/08/22 08:47:23;;;;;;;8.50;3.17;;;;;;;-147.16;100.00;58666.56;7397448;19;20014;-64
2023/08/22 08:49:52;;;;;;;4.05;2.60;;;;;;;-147.16;100.00;58666.56;7400187;19;20090;-64
2023/08/22 08:52:20;;;;;;;6.10;2.47;;;;;;;-147.16;100.00;58666.56;7397164;19;20035;-65
2023/08/22 08:54:50;;;;;;;8.02;2.95;;;;;;;-147.16;100.00;58666.56;7397033;19;20509;-66
2023/08/22 08:57:18;;;;;;;9.32;2.88;;;;;;;-147.16;100.00;58666.56;7399451;19;20074;-65
2023/08/22 08:59:50;;;;;;;10.25;3.65;;;;;;;-147.16;100.00;58666.56;7397077;19;20018;-65
2023/08/22 09:02:25;;;;;;;6.53;2.85;;;;;;;-147.16;100.00;58666.56;7399596;19;20414;-65
2023/08/22 09:04:53;;;;;;;6.97;3.17;;;;;;;-147.16;100.00;58666.56;7396965;19;20018;-64
2023/08/22 09:07:22;;;;;;;7.22;3.00;;;;;;;-147.16;100.00;58666.56;7399180;19;20190;-65
2023/08/22 09:09:50;;;;;;;4.32;2.75;;;;;;;-147.16;100.00;58666.56;7396168;19;20018;-65
2023/08/22 09:12:18;;;;;;;7.78;2.67;;;;;;;-147.16;100.00;58666.56;7396428;19;20078;-64
2023/08/22 09:14:51;;;;;;;4.63;2.17;;;;;;;-147.16;100.00;58666.56;7396333;19;20014;-64
2023/08/22 09:17:19;;;;;;;7.53;3.10;;;;;;;-147.16;100.00;58666.56;7398741;19;20027;-65
2023/08/22 09:19:48;;;;;;;5.05;2.40;;;;;;;-147.16;100.00;58666.56;7398788;19;20066;-65
2023/08/22 09:22:17;;;;;;;5.60;2.30;;;;;;;-147.16;100.00;58666.56;7398670;19;20002;-65
2023/08/22 09:24:53;;;;;;;3.47;1.80;;;;;;;-147.16;100.00;58666.56;7395629;19;20078;-65
2023/08/22 09:27:23;;;;;;;6.03;1.98;;;;;;;-147.16;100.00;58666.56;7398526;19;20014;-65
2023/08/22 09:29:55;;;;;;;5.97;2.85;;;;;;;-147.16;100.00;58666.56;7398874;19;20019;-65
2023/08/22 09:32:24;;;;;;;8.40;3.08;;;;;;;-147.16;100.00;58666.56;7395734;19;20078;-65
2023/08/22 09:34:57;;;;;;;4.25;2.22;;;;;;;-147.16;100.00;58666.56;7398141;19;20026;-65
2023/08/22 09:37:32;;;;;;;6.40;2.58;;;;;;;-147.16;100.00;58666.56;7398196;19;20074;-67
2023/08/22 09:40:01;;;;;;;5.60;2.70;;;;;;;-147.16;100.00;58666.56;7397691;19;20457;-67
2023/08/22 09:42:30;;;;;;;6.28;2.40;;;;;;;-147.16;100.00;58666.56;7396527;19;20026;-66
2023/08/22 09:45:01;;;;;;;5.50;2.72;;;;;;;-147.16;100.00;58666.56;7397161;19;20489;-66
2023/08/22 09:47:32;;;;;;;5.05;2.75;;;;;;;-147.16;100.00;58666.56;7395646;19;20041;-66
2023/08/22 09:50:02;;;;;;;5.40;3.10;;;;;;;-147.16;100.00;58666.56;7398064;19;20014;-65
2023/08/22 09:52:32;;;;;;;4.68;2.92;;;;;;;-147.16;100.00;58666.56;7396094;19;20015;-66
2023/08/22 09:55:01;;;;;;;4.40;2.88;;;;;;;-147.16;100.00;58666.56;7395480;19;20025;-65
2023/08/22 09:57:30;;;;;;;8.07;3.42;;;;;;;-147.16;100.00;58666.56;7395590;19;20485;-65
2023/08/22 10:00:04;;;;;;;4.80;2.90;;;;;;;-147.16;100.00;58666.56;7398331;19;20025;-67
2023/08/22 10:02:35;;;;;;;8.70;4.25;;;;;;;-147.16;100.00;58666.56;7396600;19;20014;-66
2023/08/22 10:05:05;;;;;;;5.25;2.92;;;;;;;-147.16;100.00;58666.56;7399165;19;20018;-65
2023/08/22 10:07:34;;;;;;;8.20;2.92;;;;;;;-147.16;100.00;58666.56;7396795;19;20007;-65
2023/08/22 10:10:02;;;;;;;7.80;4.78;;;;;;;-147.16;100.00;58666.56;7394746;19;20018;-65
2023/08/22 10:12:31;;;;;;;8.35;3.53;;;;;;;-147.16;100.00;58666.56;7395625;19;20028;-66
2023/08/22 10:15:08;;;;;;;5.53;2.45;;;;;;;-147.16;100.00;58666.56;7397505;19;20011;-65
2023/08/22 10:17:36;;;;;;;5.85;3.35;;;;;;;-147.16;100.00;58666.56;7397379;19;20014;-65
2023/08/22 10:20:08;;;;;;;4.82;2.70;;;;;;;-147.16;100.00;58666.56;7396799;19;20038;-66
2023/08/22 10:22:36;;;;;;;4.72;2.63;;;;;;;-147.16;100.00;58666.56;7393879;19;20031;-64
2023/08/22 10:25:06;;;;;;;4.85;2.60;;;;;;;-147.16;100.00;58666.56;7396223;19;20070;-65
2023/08/22 10:27:38;;;;;;;3.13;2.38;;;;;;;-147.16;100.00;58666.56;7394551;19;20018;-64
2023/08/22 10:30:25;;;;;;;4.72;2.20;;;;;;;-147.16;100.00;58666.56;7396737;19;20017;-64
2023/08/22 10:33:15;;;;;;;3.38;2.22;;;;;;;-147.16;100.00;58666.56;7393054;19;20485;-64
2023/08/22 10:35:43;;;;;;;3.38;2.40;;;;;;;-147.16;100.00;58666.56;7395786;19;20030;-65
2023/08/22 10:38:21;;;;;;;6.03;3.20;;;;;;;-147.16;100.00;58666.56;7395940;19;20014;-64
2023/08/22 10:40:55;;;;;;;5.97;3.20;;;;;;;-147.16;100.00;58666.56;7396373;19;20014;-65
2023/08/22 10:43:38;;;;;;;6.95;3.60;;;;;;;-147.16;100.00;58666.56;7395567;19;20035;-65
2023/08/22 10:46:09;;;;;;;6.65;3.42;;;;;;;-147.16;100.00;58666.56;7394710;19;20026;-65
2023/08/22 10:48:38;;;;;;;4.93;3.42;;;;;;;-147.16;100.00;58666.56;7394662;19;20018;-65
2023/08/22 10:51:08;;;;;;;6.50;4.13;;;;;;;-147.16;100.00;58666.56;7395090;19;20077;-65
2023/08/22 10:53:44;;;;;;;5.60;3.22;;;;;;;-147.16;100.00;58666.56;7393593;19;20022;-65
2023/08/22 10:56:25;;;;;;;7.70;3.78;;;;;;;-147.16;100.00;58666.56;7393880;19;20020;-65
2023/08/22 10:59:01;;;;;;;6.95;2.78;;;;;;;-147.16;100.00;58666.56;7394622;19;20010;-65
2023/08/22 11:01:32;;;;;;;4.85;3.50;;;;;;;-147.16;100.00;58666.56;7395259;19;20074;-65
2023/08/22 11:04:03;;;;;;;5.47;3.72;;;;;;;-147.16;100.00;58666.56;7393938;19;20098;-66
2023/08/22 11:06:31;;;;;;;5.35;3.58;;;;;;;-147.16;100.00;58666.56;7393349;19;20061;-66
2023/08/22 11:09:00;;;;;;;5.85;3.28;;;;;;;-147.16;100.00;58666.56;7394397;19;20070;-67
2023/08/22 11:11:29;;;;;;;5.38;3.22;;;;;;;-147.16;100.00;58666.56;7394341;19;20431;-67
2023/08/22 11:14:01;;;;;;;5.95;3.40;;;;;;;-147.16;100.00;58666.56;7393582;19;20031;-68
2023/08/22 11:16:32;;;;;;;7.82;3.17;;;;;;;-147.16;100.00;58666.56;7393610;19;20011;-66
2023/08/22 11:19:02;;;;;;;7.72;3.10;;;;;;;-147.16;100.00;58666.56;7393363;19;20170;-67
2023/08/22 11:21:31;;;;;;;6.57;3.90;;;;;;;-147.16;100.00;58666.56;7392822;19;20420;-67